Time;durP1;ratioP1;P1;durP2;ratioP2;P2;SDS_P1;SDS_P2;PMS_P1;PMS_P2;Temp;Humidity;BMP_temperature;BMP_pressure;BME280_temperature;BME280_humidity;BME280_pressure;Samples;Min_cycle;Max_cycle;Signal;HPM_P1;HPM_P2
2021/05/03 00:02:57;;;;;;;12.83;10.13;;;6.90;84.50;;;;;;8298802;28;20491;-72
2021/05/03 00:06:58;;;;;;;12.67;8.50;;;6.90;84.40;;;;;;8308970;28;20253;-72
2021/05/03 00:10:59;;;;;;;10.00;8.30;;;6.90;84.30;;;;;;8277802;28;20191;-73
2021/05/03 00:15:03;;;;;;;12.30;9.17;;;6.90;84.40;;;;;;8301611;28;20538;-73
2021/05/03 00:19:04;;;;;;;12.30;8.40;;;6.80;84.40;;;;;;8301606;28;20276;-73
2021/05/03 00:23:05;;;;;;;11.20;9.77;;;6.80;85.00;;;;;;8302430;28;20474;-72
2021/05/03 00:27:06;;;;;;;13.73;9.30;;;6.70;84.70;;;;;;8301486;28;20519;-73
2021/05/03 00:31:06;;;;;;;11.57;9.43;;;6.70;85.70;;;;;;8305473;28;20209;-73
2021/05/03 00:35:07;;;;;;;12.27;8.03;;;6.60;85.30;;;;;;8303357;28;20459;-73
2021/05/03 00:39:11;;;;;;;11.53;10.33;;;6.70;85.50;;;;;;8307458;28;20199;-73
2021/05/03 00:43:17;;;;;;;14.40;9.00;;;6.70;85.30;;;;;;8292922;28;20536;-74
2021/05/03 00:47:19;;;;;;;9.10;8.30;;;6.70;85.10;;;;;;8298854;28;20939;-73
2021/05/03 00:51:19;;;;;;;9.20;8.20;;;6.60;85.30;;;;;;8300680;28;20518;-73
2021/05/03 00:55:22;;;;;;;16.87;8.77;;;6.60;85.40;;;;;;8291513;28;20450;-73
2021/05/03 00:59:22;;;;;;;9.23;8.10;;;6.60;85.30;;;;;;8299138;28;20199;-73
2021/05/03 01:03:23;;;;;;;11.27;9.20;;;6.60;85.10;;;;;;8305003;28;20475;-74
2021/05/03 01:07:24;;;;;;;10.83;7.23;;;6.60;85.20;;;;;;8304093;28;20205;-74
2021/05/03 01:11:24;;;;;;;17.20;8.80;;;6.60;85.40;;;;;;8309680;28;20196;-74
2021/05/03 01:15:26;;;;;;;11.67;7.37;;;6.60;85.20;;;;;;8299017;28;20258;-73
2021/05/03 01:19:28;;;;;;;14.00;10.40;;;6.60;84.90;;;;;;8294612;28;20285;-74
2021/05/03 01:23:29;;;;;;;11.30;8.53;;;6.50;85.00;;;;;;8298296;28;20466;-74
2021/05/03 01:27:29;;;;;;;12.17;8.50;;;6.50;85.10;;;;;;8294954;28;20438;-74
2021/05/03 01:31:30;;;;;;;10.10;7.67;;;6.40;85.00;;;;;;8296709;28;20195;-74
2021/05/03 01:35:32;;;;;;;11.03;8.93;;;6.30;85.30;;;;;;8300721;28;20249;-74
2021/05/03 01:39:32;;;;;;;9.73;8.83;;;6.20;86.20;;;;;;8306241;28;20217;-74
2021/05/03 01:43:41;;;;;;;10.90;8.80;;;6.00;86.70;;;;;;8285957;28;20502;-74
2021/05/03 01:47:44;;;;;;;14.43;9.70;;;5.80;87.50;;;;;;8299548;28;20237;-74
2021/05/03 01:51:47;;;;;;;12.57;9.47;;;5.60;88.10;;;;;;8315942;28;20450;-73
2021/05/03 01:55:54;;;;;;;13.87;8.97;;;5.40;89.00;;;;;;8317802;28;21241;-74
2021/05/03 01:59:55;;;;;;;11.60;9.40;;;5.30;89.40;;;;;;8295479;28;20467;-74
2021/05/03 02:03:58;;;;;;;10.23;8.33;;;5.30;89.80;;;;;;8308700;28;20449;-74
2021/05/03 02:08:02;;;;;;;19.63;9.53;;;5.30;89.60;;;;;;8310864;28;20193;-74
2021/05/03 02:12:06;;;;;;;15.77;9.30;;;5.40;89.50;;;;;;8330143;28;20458;-74
2021/05/03 02:16:14;;;;;;;13.03;8.73;;;5.40;89.20;;;;;;8317059;28;20435;-74
2021/05/03 02:20:19;;;;;;;16.40;10.10;;;5.40;89.20;;;;;;8321687;28;20455;-74
2021/05/03 02:24:19;;;;;;;11.20;9.33;;;5.50;89.30;;;;;;8308262;28;20445;-74
2021/05/03 02:28:20;;;;;;;10.87;9.77;;;5.50;89.30;;;;;;8291508;28;20195;-74
2021/05/03 02:32:25;;;;;;;11.90;8.43;;;5.50;89.10;;;;;;8328030;28;20206;-74
2021/05/03 02:36:25;;;;;;;11.33;8.40;;;5.60;89.10;;;;;;8302054;28;20457;-74
2021/05/03 02:40:31;;;;;;;9.13;7.60;;;5.60;89.20;;;;;;8302607;28;20532;-74
2021/05/03 02:44:31;;;;;;;15.03;10.43;;;5.70;88.80;;;;;;8293755;28;20858;-74
2021/05/03 02:48:40;;;;;;;13.30;9.90;;;5.70;88.50;;;;;;8308606;28;20948;-74
2021/05/03 02:52:41;;;;;;;11.90;8.77;;;5.60;88.90;;;;;;8302705;28;20976;-74
2021/05/03 02:56:57;;;;;;;12.30;9.20;;;5.50;89.30;;;;;;8326252;28;20198;-74
2021/05/03 03:01:01;;;;;;;10.70;8.53;;;5.40;89.50;;;;;;8302801;28;20533;-74
2021/05/03 03:05:05;;;;;;;15.80;9.97;;;5.40;89.70;;;;;;8306702;28;20997;-74
2021/05/03 03:09:09;;;;;;;16.93;10.43;;;5.30;89.70;;;;;;8321650;28;20573;-73
2021/05/03 03:13:10;;;;;;;13.70;9.40;;;5.20;90.00;;;;;;8304327;28;20470;-74
2021/05/03 03:17:15;;;;;;;14.20;11.00;;;5.10;90.10;;;;;;8313020;28;20552;-74
2021/05/03 03:21:16;;;;;;;14.93;10.17;;;5.00;90.30;;;;;;8304139;28;20206;-74
2021/05/03 03:25:18;;;;;;;14.57;10.50;;;4.90;90.20;;;;;;8307450;28;20973;-73
2021/05/03 03:29:19;;;;;;;16.80;12.10;;;4.80;90.30;;;;;;8307648;28;20805;-74
2021/05/03 03:33:27;;;;;;;18.40;12.50;;;4.80;90.50;;;;;;8297436;28;20481;-74
2021/05/03 03:37:27;;;;;;;17.63;11.73;;;4.70;90.70;;;;;;8297226;28;20456;-74
2021/05/03 03:41:28;;;;;;;14.67;10.57;;;4.60;90.90;;;;;;8297600;28;20237;-74
2021/05/03 03:45:29;;;;;;;17.70;11.50;;;4.60;91.00;;;;;;8307880;28;20201;-74
2021/05/03 03:49:29;;;;;;;17.17;12.10;;;4.60;91.00;;;;;;8288261;28;20244;-74
2021/05/03 03:53:33;;;;;;;15.03;11.07;;;4.60;91.10;;;;;;8301061;28;20526;-74
2021/05/03 03:57:33;;;;;;;15.57;10.90;;;4.60;91.10;;;;;;8308676;28;20194;-74
2021/05/03 04:01:41;;;;;;;21.30;11.70;;;4.60;91.20;;;;;;8304833;28;20452;-74
2021/05/03 04:10:24;;;;;;;16.73;11.17;;;4.70;91.10;;;;;;8325805;28;20494;-73
2021/05/03 04:27:34;;;;;;;16.60;11.37;;;4.90;91.00;;;;;;8299995;28;20455;-74
2021/05/03 04:31:38;;;;;;;14.47;10.40;;;5.00;90.80;;;;;;8312433;28;20981;-74
2021/05/03 04:35:39;;;;;;;11.73;8.90;;;5.20;90.60;;;;;;8308071;28;20469;-75
2021/05/03 04:39:40;;;;;;;10.50;8.70;;;5.30;90.20;;;;;;8305159;28;20443;-75
2021/05/03 04:43:41;;;;;;;11.53;9.10;;;5.50;90.10;;;;;;8295279;28;20195;-75
2021/05/03 04:47:46;;;;;;;10.87;7.80;;;5.60;89.40;;;;;;8327251;28;20199;-74
2021/05/03 04:51:51;;;;;;;11.53;8.30;;;5.80;88.70;;;;;;8298936;28;20477;-74
2021/05/03 04:55:52;;;;;;;12.93;9.00;;;5.90;88.40;;;;;;8309421;28;20270;-73
2021/05/03 04:59:56;;;;;;;10.60;8.67;;;6.00;87.40;;;;;;8327926;28;20450;-75
2021/05/03 05:04:00;;;;;;;18.93;8.27;;;6.20;87.10;;;;;;8310276;28;20520;-74
2021/05/03 05:08:01;;;;;;;10.77;8.47;;;6.30;86.70;;;;;;8304693;28;20242;-74
2021/05/03 05:12:02;;;;;;;12.00;7.63;;;6.50;86.50;;;;;;8304916;28;21092;-75
2021/05/03 05:16:06;;;;;;;13.57;8.20;;;6.70;85.90;;;;;;8316319;28;20188;-75
2021/05/03 05:20:08;;;;;;;7.43;6.07;;;7.00;84.90;;;;;;8296088;28;20486;-75
2021/05/03 05:24:18;;;;;;;8.40;6.50;;;7.30;84.40;;;;;;8327033;28;20493;-77
2021/05/03 05:28:19;;;;;;;10.83;7.20;;;7.60;83.20;;;;;;8307970;28;20451;-74
2021/05/03 05:32:20;;;;;;;8.20;7.20;;;7.90;82.10;;;;;;8309460;28;20471;-74
2021/05/03 05:36:24;;;;;;;7.90;6.23;;;8.10;80.80;;;;;;8308610;28;20442;-74
2021/05/03 05:40:26;;;;;;;13.20;7.50;;;8.30;79.70;;;;;;8294511;28;20196;-73
2021/05/03 05:44:26;;;;;;;13.37;7.80;;;8.40;79.40;;;;;;8290444;28;20455;-74
2021/05/03 05:48:33;;;;;;;9.40;7.13;;;8.60;78.50;;;;;;8310630;28;20242;-74
2021/05/03 05:52:33;;;;;;;11.20;7.43;;;8.80;78.20;;;;;;8307071;28;20577;-75
2021/05/03 05:56:34;;;;;;;7.60;6.83;;;8.90;77.70;;;;;;8306557;28;20455;-75
2021/05/03 06:00:40;;;;;;;9.43;7.53;;;9.00;77.00;;;;;;8307280;28;20676;-75
2021/05/03 06:04:42;;;;;;;10.43;7.73;;;9.20;76.70;;;;;;8302277;28;20451;-73
2021/05/03 06:08:43;;;;;;;11.20;6.93;;;9.40;75.80;;;;;;8299390;28;20446;-74
2021/05/03 06:12:48;;;;;;;9.03;5.83;;;9.60;75.00;;;;;;8307613;28;20476;-74
2021/05/03 06:16:53;;;;;;;9.53;7.10;;;9.80;74.10;;;;;;8302562;28;20445;-74
2021/05/03 06:20:57;;;;;;;6.80;5.70;;;10.10;73.40;;;;;;8293522;28;21019;-76
2021/05/03 06:25:00;;;;;;;7.93;7.00;;;10.30;72.40;;;;;;8294365;28;20455;-75
2021/05/03 06:29:00;;;;;;;6.60;5.90;;;10.40;71.70;;;;;;8298554;28;20504;-74
2021/05/03 06:33:09;;;;;;;12.10;6.63;;;10.40;70.90;;;;;;8321220;28;20478;-73
2021/05/03 06:37:12;;;;;;;9.33;6.10;;;10.50;70.70;;;;;;8300288;28;20542;-75
2021/05/03 06:41:13;;;;;;;9.13;5.37;;;10.60;70.80;;;;;;8318912;28;20235;-75
2021/05/03 06:45:20;;;;;;;9.20;5.57;;;10.90;70.10;;;;;;8306138;28;20457;-75
2021/05/03 06:49:23;;;;;;;7.83;5.77;;;11.20;69.20;;;;;;8317045;28;20569;-74
2021/05/03 06:53:25;;;;;;;5.80;4.80;;;11.80;67.70;;;;;;8322589;28;20476;-75
2021/05/03 06:57:26;;;;;;;10.00;5.37;;;12.50;65.90;;;;;;8322321;28;20881;-74
2021/05/03 07:01:30;;;;;;;11.30;5.27;;;13.30;63.50;;;;;;8335544;28;20526;-74
2021/05/03 07:05:31;;;;;;;5.53;5.03;;;13.90;61.20;;;;;;8317628;28;20460;-74
2021/05/03 07:09:34;;;;;;;5.43;4.40;;;14.30;58.40;;;;;;8319064;28;20226;-74
2021/05/03 07:13:36;;;;;;;9.00;5.27;;;14.60;56.60;;;;;;8320901;28;20749;-75
2021/05/03 07:17:37;;;;;;;5.83;5.10;;;15.20;55.50;;;;;;8313474;28;20473;-75
2021/05/03 07:21:38;;;;;;;10.93;5.73;;;15.70;54.50;;;;;;8298588;28;20803;-75
2021/05/03 07:25:40;;;;;;;7.00;5.10;;;16.20;53.00;;;;;;8321699;28;20443;-75
2021/05/03 07:29:45;;;;;;;8.07;5.13;;;16.60;51.40;;;;;;8335766;28;20439;-76
2021/05/03 07:33:49;;;;;;;5.77;4.27;;;17.00;50.90;;;;;;8314791;28;20485;-75
2021/05/03 07:38:03;;;;;;;5.87;4.97;;;17.40;48.80;;;;;;8319314;28;20548;-75
2021/05/03 07:42:06;;;;;;;6.67;4.70;;;17.50;46.70;;;;;;8306764;28;20466;-75
2021/05/03 07:46:06;;;;;;;5.67;4.80;;;17.60;45.20;;;;;;8320860;28;20453;-75
2021/05/03 07:50:08;;;;;;;6.80;4.30;;;17.90;43.60;;;;;;8316624;28;20445;-76
2021/05/03 07:54:15;;;;;;;6.23;4.87;;;17.90;43.70;;;;;;8311226;28;20219;-75
2021/05/03 07:58:19;;;;;;;10.13;5.70;;;18.00;41.90;;;;;;8321388;28;20445;-75
2021/05/03 08:02:21;;;;;;;7.53;5.40;;;18.00;43.30;;;;;;8308571;28;20530;-75
2021/05/03 08:06:22;;;;;;;6.20;4.77;;;18.10;42.30;;;;;;8314329;28;21008;-74
2021/05/03 08:10:25;;;;;;;7.97;5.40;;;18.30;40.40;;;;;;8317279;28;21102;-75
2021/05/03 08:14:32;;;;;;;7.23;5.30;;;18.60;41.80;;;;;;8315079;28;20474;-75
2021/05/03 08:18:34;;;;;;;7.27;4.90;;;18.80;40.80;;;;;;8322608;28;20455;-75
2021/05/03 08:22:35;;;;;;;6.93;5.60;;;18.80;41.20;;;;;;8315233;28;20446;-75
2021/05/03 08:26:36;;;;;;;6.40;5.10;;;18.80;40.10;;;;;;8314696;28;20455;-75
2021/05/03 08:30:37;;;;;;;7.43;5.27;;;18.70;40.40;;;;;;8299978;28;20496;-74
2021/05/03 08:34:38;;;;;;;6.47;4.40;;;18.80;40.50;;;;;;8298731;28;20482;-75
2021/05/03 08:38:38;;;;;;;6.20;5.63;;;19.10;39.40;;;;;;8315906;28;20216;-74
2021/05/03 08:42:41;;;;;;;7.50;5.30;;;19.60;39.00;;;;;;8298342;28;20197;-73
2021/05/03 08:46:44;;;;;;;8.97;4.90;;;20.00;39.10;;;;;;8297523;28;20247;-73
2021/05/03 08:55:26;;;;;;;9.20;4.90;;;20.80;37.50;;;;;;8180021;28;20501;-74
2021/05/03 08:59:27;;;;;;;8.63;5.63;;;21.00;36.50;;;;;;8227007;28;20450;-74
2021/05/03 09:03:28;;;;;;;9.20;5.27;;;21.40;36.00;;;;;;8283923;28;20286;-75
2021/05/03 09:07:29;;;;;;;6.63;5.80;;;22.10;37.10;;;;;;8297696;28;20200;-74
2021/05/03 09:11:29;;;;;;;11.53;6.00;;;22.30;35.40;;;;;;8294949;28;20850;-75
2021/05/03 09:15:32;;;;;;;6.90;6.20;;;22.60;35.60;;;;;;8294409;28;20282;-74
2021/05/03 09:19:33;;;;;;;6.00;5.33;;;22.70;35.20;;;;;;8295228;28;20211;-74
2021/05/03 09:24:12;;;;;;;6.37;5.77;;;21.80;35.10;;;;;;8295724;28;20502;-74
2021/05/03 09:28:26;;;;;;;6.93;6.20;;;20.70;36.40;;;;;;8301930;28;20428;-75
2021/05/03 09:32:34;;;;;;;6.37;5.67;;;19.90;37.80;;;;;;8319253;28;20485;-73
2021/05/03 09:36:34;;;;;;;14.90;7.77;;;19.20;37.80;;;;;;8293614;28;20418;-74
2021/05/03 09:40:35;;;;;;;5.80;5.20;;;18.60;39.10;;;;;;8288141;28;20197;-75
2021/05/03 09:45:09;;;;;;;7.20;5.70;;;18.20;40.80;;;;;;8271698;28;20934;-74
2021/05/03 09:49:12;;;;;;;11.60;6.33;;;18.10;40.30;;;;;;8295526;28;20196;-75
2021/05/03 09:53:13;;;;;;;6.60;6.00;;;17.90;40.50;;;;;;8296749;28;20469;-74
2021/05/03 09:57:14;;;;;;;7.00;5.87;;;17.90;40.80;;;;;;8293115;28;20484;-74
2021/05/03 10:01:15;;;;;;;6.67;5.97;;;18.00;40.80;;;;;;8294954;28;20728;-74
2021/05/03 10:05:20;;;;;;;8.00;6.63;;;18.00;39.40;;;;;;8292282;28;20489;-74
2021/05/03 10:09:21;;;;;;;8.47;6.33;;;17.70;40.50;;;;;;8298332;28;20505;-73
2021/05/03 10:13:23;;;;;;;7.70;5.80;;;17.60;41.20;;;;;;8298704;28;20479;-74
2021/05/03 10:17:28;;;;;;;6.37;4.80;;;18.40;40.90;;;;;;8287418;28;20813;-73
2021/05/03 10:21:31;;;;;;;8.67;6.47;;;19.20;37.60;;;;;;8288705;28;20446;-74
2021/05/03 10:25:36;;;;;;;6.90;5.10;;;20.30;37.10;;;;;;8315460;28;20408;-74
2021/05/03 10:29:41;;;;;;;6.23;5.27;;;21.30;35.40;;;;;;8283153;28;20653;-73
2021/05/03 10:33:43;;;;;;;6.00;5.50;;;21.30;34.40;;;;;;8300222;28;20493;-73
2021/05/03 10:37:44;;;;;;;5.47;4.93;;;20.80;34.70;;;;;;8291742;28;20453;-72
2021/05/03 10:42:11;;;;;;;4.10;3.70;;;21.50;34.60;;;;;;8284255;28;20454;-73
2021/05/03 10:50:33;;;;;;;10.63;4.93;;;20.80;33.50;;;;;;8319294;28;20444;-73
2021/05/03 10:58:56;;;;;;;4.33;3.93;;;19.90;34.30;;;;;;8319497;28;20554;-73
2021/05/03 11:03:01;;;;;;;4.60;4.20;;;20.90;33.60;;;;;;8307536;28;20439;-73
2021/05/03 11:07:07;;;;;;;10.43;5.10;;;20.90;33.30;;;;;;8291661;28;20488;-74
2021/05/03 11:11:11;;;;;;;7.20;4.30;;;20.40;33.90;;;;;;8295856;28;20299;-73
2021/05/03 11:15:19;;;;;;;5.43;4.90;;;20.00;34.10;;;;;;8292966;28;20455;-72
2021/05/03 11:19:35;;;;;;;7.23;6.50;;;19.40;35.20;;;;;;8293035;28;20458;-74
2021/05/03 11:23:38;;;;;;;6.83;5.10;;;18.90;35.60;;;;;;8296111;28;20457;-74
2021/05/03 11:31:57;;;;;;;7.17;4.23;;;19.40;35.30;;;;;;8317799;28;20569;-74
2021/05/03 11:36:08;;;;;;;4.83;4.33;;;20.40;35.70;;;;;;8294724;28;20466;-72
2021/05/03 11:40:28;;;;;;;4.87;3.60;;;20.80;34.00;;;;;;8290556;28;20189;-74
2021/05/03 11:49:09;;;;;;;4.60;4.17;;;22.80;32.60;;;;;;8304311;28;20447;-73
2021/05/03 11:53:37;;;;;;;3.57;3.30;;;22.50;32.30;;;;;;8316080;28;20545;-73
2021/05/03 11:57:48;;;;;;;4.00;3.70;;;22.60;33.50;;;;;;8315897;28;20450;-72
2021/05/03 12:02:13;;;;;;;4.23;3.90;;;22.50;31.90;;;;;;8304558;28;20455;-72
2021/05/03 12:06:33;;;;;;;4.10;3.70;;;22.10;32.90;;;;;;8293836;28;20514;-74
2021/05/03 12:10:37;;;;;;;4.30;4.00;;;22.00;32.80;;;;;;8301137;28;20758;-73
2021/05/03 12:14:51;;;;;;;9.53;3.90;;;21.80;32.70;;;;;;8298969;28;20448;-74
2021/05/03 12:19:01;;;;;;;4.80;3.73;;;21.60;33.20;;;;;;8293807;28;20454;-72
2021/05/03 12:23:10;;;;;;;4.90;4.50;;;21.60;33.50;;;;;;8298216;28;20426;-73
2021/05/03 12:27:12;;;;;;;5.00;4.00;;;21.30;33.30;;;;;;8302783;28;20494;-73
2021/05/03 12:31:12;;;;;;;4.97;4.50;;;20.90;33.70;;;;;;8295278;28;21089;-74
2021/05/03 12:35:19;;;;;;;5.30;4.70;;;20.50;34.10;;;;;;8289025;28;20833;-73
2021/05/03 12:39:20;;;;;;;4.63;4.23;;;20.30;34.90;;;;;;8272586;28;20253;-73
2021/05/03 12:43:26;;;;;;;5.77;4.80;;;20.50;35.70;;;;;;8301078;28;20565;-74
2021/05/03 12:47:43;;;;;;;4.70;4.30;;;21.00;35.10;;;;;;8296181;28;20199;-73
2021/05/03 12:52:07;;;;;;;5.70;4.73;;;21.30;35.20;;;;;;8296453;28;20535;-73
2021/05/03 12:56:22;;;;;;;4.60;4.20;;;21.30;33.20;;;;;;8312368;28;20503;-74
2021/05/03 13:00:29;;;;;;;6.33;4.50;;;20.60;35.20;;;;;;8299437;28;21163;-74
2021/05/03 13:05:00;;;;;;;6.40;4.23;;;20.20;34.90;;;;;;8310827;28;20443;-74
2021/05/03 13:09:22;;;;;;;4.33;4.00;;;19.90;35.70;;;;;;8291796;28;20449;-74
2021/05/03 13:31:05;;;;;;;8.77;5.13;;;19.80;35.60;;;;;;8307154;28;20493;-72
2021/05/03 13:35:13;;;;;;;6.37;4.27;;;19.60;35.30;;;;;;8290930;28;20469;-73
2021/05/03 13:39:16;;;;;;;7.63;3.87;;;19.40;36.30;;;;;;8288118;28;21122;-74
2021/05/03 13:43:21;;;;;;;4.70;4.30;;;19.30;37.30;;;;;;8288233;28;20551;-74
2021/05/03 13:47:21;;;;;;;8.33;3.47;;;19.50;36.70;;;;;;8282970;28;20450;-74
2021/05/03 13:51:23;;;;;;;5.00;4.37;;;19.60;37.20;;;;;;8281186;28;20571;-72
2021/05/03 13:55:26;;;;;;;4.40;4.10;;;19.70;37.10;;;;;;8288751;28;20211;-73
2021/05/03 13:59:27;;;;;;;5.97;4.70;;;19.90;37.30;;;;;;8298294;28;20448;-73
2021/05/03 14:03:29;;;;;;;7.40;4.47;;;20.10;37.50;;;;;;8305259;28;21008;-73
2021/05/03 14:07:32;;;;;;;6.33;3.90;;;20.30;36.50;;;;;;8298692;28;20500;-73
2021/05/03 14:11:40;;;;;;;6.07;4.13;;;20.20;36.70;;;;;;8298447;28;20477;-75
2021/05/03 14:15:41;;;;;;;4.70;3.97;;;19.90;37.30;;;;;;8294938;28;20447;-73
2021/05/03 14:19:43;;;;;;;16.30;5.07;;;19.80;37.70;;;;;;8303287;28;20456;-74
2021/05/03 14:23:44;;;;;;;8.57;5.27;;;19.50;36.50;;;;;;8319007;28;20715;-74
2021/05/03 14:27:46;;;;;;;5.63;4.40;;;19.20;37.30;;;;;;8301310;28;20487;-74
2021/05/03 14:31:55;;;;;;;5.57;5.07;;;19.00;38.10;;;;;;8303899;28;20223;-72
2021/05/03 14:35:56;;;;;;;5.67;4.50;;;18.70;38.40;;;;;;8301298;28;20558;-74
2021/05/03 14:39:57;;;;;;;7.70;4.17;;;18.70;38.60;;;;;;8295131;28;20449;-73
2021/05/03 14:44:11;;;;;;;7.43;4.23;;;18.90;38.40;;;;;;8315974;28;20445;-72
2021/05/03 14:56:46;;;;;;;4.50;3.80;;;19.20;37.90;;;;;;8288136;28;21124;-75
2021/05/03 15:00:48;;;;;;;5.30;4.83;;;19.40;38.10;;;;;;8295706;28;20824;-74
2021/05/03 15:04:49;;;;;;;4.13;3.73;;;19.60;38.20;;;;;;8303051;28;23285;-72
2021/05/03 15:08:58;;;;;;;8.00;3.53;;;19.80;38.30;;;;;;8300900;28;21160;-72
2021/05/03 15:13:18;;;;;;;3.50;3.20;;;19.80;37.00;;;;;;8287232;28;20223;-73
2021/05/03 15:21:32;;;;;;;8.80;3.97;;;19.20;37.10;;;;;;8321254;28;20537;-72
2021/05/03 15:25:35;;;;;;;4.33;4.03;;;18.80;37.80;;;;;;8322576;28;20797;-74
2021/05/03 15:33:45;;;;;;;4.83;4.43;;;18.00;39.00;;;;;;8308220;28;20472;-75
2021/05/03 15:37:47;;;;;;;8.63;6.20;;;17.80;39.90;;;;;;8314503;28;20981;-74
2021/05/03 15:41:48;;;;;;;4.30;3.83;;;17.70;39.70;;;;;;8292212;28;20938;-72
2021/05/03 15:45:51;;;;;;;5.80;5.30;;;17.60;39.60;;;;;;8300772;28;20457;-73
2021/05/03 15:49:52;;;;;;;5.20;4.80;;;17.60;39.60;;;;;;8285059;28;20211;-74
2021/05/03 15:53:52;;;;;;;7.03;5.17;;;17.80;39.60;;;;;;8285413;28;20561;-72
2021/05/03 15:57:54;;;;;;;5.80;5.20;;;17.80;39.90;;;;;;8295716;28;20194;-73
2021/05/03 16:01:56;;;;;;;8.37;5.37;;;17.80;39.40;;;;;;8304372;28;20203;-74
2021/05/03 16:06:05;;;;;;;4.87;4.40;;;17.80;39.60;;;;;;8318936;28;20457;-74
2021/05/03 16:10:07;;;;;;;5.93;5.13;;;17.90;39.80;;;;;;8293982;28;20453;-74
2021/05/03 16:14:08;;;;;;;9.07;5.33;;;18.00;39.60;;;;;;8323864;28;20563;-73
2021/05/03 16:18:09;;;;;;;5.63;5.00;;;18.00;40.00;;;;;;8293834;28;20473;-73
2021/05/03 16:22:12;;;;;;;7.17;5.00;;;18.20;40.20;;;;;;8290242;28;20457;-73
2021/05/03 16:26:12;;;;;;;5.90;4.60;;;18.40;39.90;;;;;;8291816;28;20207;-74
2021/05/03 16:30:14;;;;;;;6.07;5.57;;;18.30;39.60;;;;;;8293348;28;20450;-74
2021/05/03 16:34:15;;;;;;;5.43;4.97;;;18.20;39.70;;;;;;8292104;28;20221;-74
2021/05/03 16:38:16;;;;;;;12.77;6.20;;;18.00;39.50;;;;;;8297321;28;20446;-74
2021/05/03 16:42:17;;;;;;;4.97;4.47;;;17.80;40.10;;;;;;8298267;28;20625;-73
2021/05/03 16:46:19;;;;;;;6.53;4.80;;;17.60;40.30;;;;;;8302507;28;20194;-74
2021/05/03 16:50:21;;;;;;;4.67;4.27;;;17.50;40.90;;;;;;8293590;28;20512;-72
2021/05/03 16:54:22;;;;;;;6.87;5.43;;;17.30;41.30;;;;;;8297476;28;20495;-72
2021/05/03 16:58:23;;;;;;;5.47;4.93;;;17.20;41.30;;;;;;8314766;28;20502;-73
2021/05/03 17:02:25;;;;;;;7.87;4.20;;;17.10;41.40;;;;;;8300784;28;20197;-74
2021/05/03 17:06:25;;;;;;;6.57;4.43;;;17.00;41.40;;;;;;8282248;28;20461;-73
2021/05/03 17:10:30;;;;;;;5.30;4.60;;;16.90;41.50;;;;;;8302120;28;20446;-73
2021/05/03 17:14:32;;;;;;;8.17;5.70;;;16.80;41.70;;;;;;8321999;28;20493;-73
2021/05/03 17:18:33;;;;;;;7.30;5.53;;;16.80;42.00;;;;;;8279262;28;20507;-74
2021/05/03 17:22:37;;;;;;;6.67;5.00;;;16.80;41.50;;;;;;8297310;28;20462;-74
2021/05/03 17:26:38;;;;;;;5.93;5.23;;;16.60;41.90;;;;;;8295052;28;20447;-73
2021/05/03 17:30:39;;;;;;;6.77;5.57;;;16.60;42.30;;;;;;8298522;28;20447;-73
2021/05/03 17:34:40;;;;;;;7.20;4.93;;;16.50;41.90;;;;;;8292571;28;20478;-73
2021/05/03 17:38:41;;;;;;;7.03;5.00;;;16.50;42.40;;;;;;8289727;28;20396;-74
2021/05/03 17:42:43;;;;;;;5.73;4.80;;;16.40;42.80;;;;;;8276394;28;20208;-75
2021/05/03 17:46:47;;;;;;;5.67;4.03;;;16.40;42.50;;;;;;8299859;28;20246;-76
2021/05/03 17:50:48;;;;;;;6.33;5.60;;;16.40;42.60;;;;;;8275751;28;20577;-74
2021/05/03 17:54:51;;;;;;;6.30;5.70;;;16.30;42.90;;;;;;8294378;28;20478;-73
2021/05/03 17:58:56;;;;;;;5.03;4.63;;;16.20;42.90;;;;;;8294267;28;20253;-74
2021/05/03 18:02:58;;;;;;;6.87;5.43;;;16.10;42.50;;;;;;8284597;28;20505;-72
2021/05/03 18:06:59;;;;;;;4.70;4.27;;;16.10;43.50;;;;;;8296944;28;20449;-76
2021/05/03 18:11:07;;;;;;;6.37;5.60;;;16.00;43.50;;;;;;8295554;28;20504;-76
2021/05/03 18:15:11;;;;;;;5.07;4.67;;;15.90;43.10;;;;;;8282711;28;20196;-74
2021/05/03 18:19:13;;;;;;;5.83;5.10;;;15.90;43.10;;;;;;8299643;28;20451;-74
2021/05/03 18:23:14;;;;;;;5.27;4.40;;;15.90;43.40;;;;;;8304674;28;20451;-75
2021/05/03 18:27:18;;;;;;;6.77;4.90;;;15.80;43.30;;;;;;8297597;28;20457;-77
2021/05/03 18:31:20;;;;;;;6.50;5.17;;;15.80;43.30;;;;;;8303772;28;20192;-74
2021/05/03 18:35:22;;;;;;;5.30;4.50;;;15.70;43.30;;;;;;8311725;28;20455;-77
2021/05/03 18:39:24;;;;;;;8.67;5.30;;;15.60;43.60;;;;;;8291217;28;20537;-74
2021/05/03 18:43:25;;;;;;;5.90;4.47;;;15.40;43.90;;;;;;8291735;28;20473;-75
2021/05/03 18:47:27;;;;;;;5.73;5.10;;;15.30;44.50;;;;;;8301069;28;20449;-76
2021/05/03 18:51:27;;;;;;;6.00;5.03;;;15.10;45.00;;;;;;8311029;28;20705;-76
2021/05/03 18:55:28;;;;;;;5.80;4.80;;;15.00;44.80;;;;;;8317849;28;20452;-76
2021/05/03 18:59:32;;;;;;;5.07;4.27;;;14.80;45.00;;;;;;8308536;28;20282;-76
2021/05/03 19:03:34;;;;;;;5.03;4.23;;;14.70;45.40;;;;;;8302084;28;20202;-75
2021/05/03 19:07:35;;;;;;;5.93;4.90;;;14.70;45.70;;;;;;8312445;28;20449;-75
2021/05/03 19:11:40;;;;;;;4.53;4.13;;;14.60;45.70;;;;;;8313684;28;20479;-75
2021/05/03 19:15:42;;;;;;;6.73;3.83;;;14.60;46.10;;;;;;8310459;28;20446;-76
2021/05/03 19:19:46;;;;;;;5.87;5.33;;;14.50;46.00;;;;;;8312671;28;20594;-76
2021/05/03 19:23:53;;;;;;;5.10;4.70;;;14.40;46.20;;;;;;8320885;28;20476;-75
2021/05/03 19:27:53;;;;;;;6.53;5.23;;;14.30;46.60;;;;;;8319080;28;20447;-75
2021/05/03 19:36:33;;;;;;;7.03;6.13;;;14.10;47.20;;;;;;8307685;28;20197;-74
2021/05/03 19:40:34;;;;;;;5.33;4.70;;;14.00;48.00;;;;;;8321073;28;20429;-74
2021/05/03 19:44:36;;;;;;;5.83;5.10;;;13.90;48.00;;;;;;8310515;28;20498;-75
2021/05/03 19:48:40;;;;;;;9.20;5.97;;;13.80;48.10;;;;;;8315318;28;20194;-75
2021/05/03 19:53:18;;;;;;;5.20;4.80;;;13.70;48.30;;;;;;8299100;28;20468;-75
2021/05/03 20:05:38;;;;;;;5.97;4.67;;;13.50;49.00;;;;;;8317830;28;20505;-75
2021/05/03 20:09:39;;;;;;;6.23;5.60;;;13.40;49.40;;;;;;8325032;28;20438;-75
2021/05/03 20:13:40;;;;;;;7.57;4.93;;;13.40;49.60;;;;;;8308029;28;20501;-73
2021/05/03 20:17:41;;;;;;;6.93;6.33;;;13.20;49.80;;;;;;8309870;28;20493;-74
2021/05/03 20:21:41;;;;;;;5.87;5.30;;;13.20;50.10;;;;;;8313185;28;20754;-75
2021/05/03 20:25:42;;;;;;;5.40;4.90;;;13.10;50.40;;;;;;8293981;28;20669;-75
2021/05/03 20:29:44;;;;;;;6.97;4.80;;;13.00;50.50;;;;;;8312508;28;20230;-75
2021/05/03 20:38:49;;;;;;;5.43;4.67;;;12.90;50.90;;;;;;8329350;28;20441;-75
2021/05/03 20:42:38;;;;;;;6.27;5.70;;;12.80;51.20;;;;;;8321131;28;20458;-75
2021/05/03 20:46:41;;;;;;;6.23;4.80;;;12.80;51.50;;;;;;8321996;28;20477;-75
2021/05/03 20:50:43;;;;;;;5.27;4.67;;;12.80;51.80;;;;;;8309669;28;20446;-75
2021/05/03 20:54:46;;;;;;;5.60;4.60;;;12.70;51.80;;;;;;8312857;28;21225;-75
2021/05/03 20:58:48;;;;;;;5.30;4.80;;;12.70;51.80;;;;;;8308422;28;20490;-75
2021/05/03 21:02:51;;;;;;;8.17;6.07;;;12.70;52.00;;;;;;8307188;28;20452;-75
2021/05/03 21:06:52;;;;;;;7.23;5.50;;;12.70;52.10;;;;;;8314507;28;20450;-75
2021/05/03 21:10:52;;;;;;;8.87;5.73;;;12.70;52.10;;;;;;8312966;28;20462;-75
2021/05/03 21:14:56;;;;;;;4.67;4.20;;;12.70;52.20;;;;;;8311853;28;20227;-75
2021/05/03 21:19:00;;;;;;;6.60;5.63;;;12.70;52.20;;;;;;8309356;28;20224;-75
2021/05/03 21:23:03;;;;;;;5.77;4.70;;;12.80;52.20;;;;;;8314623;28;20462;-75
2021/05/03 21:27:03;;;;;;;7.17;5.73;;;12.80;52.30;;;;;;8310703;28;20969;-76
2021/05/03 21:31:04;;;;;;;8.47;6.10;;;12.90;52.00;;;;;;8304404;28;20454;-75
2021/05/03 21:35:08;;;;;;;10.23;5.67;;;13.00;51.90;;;;;;8287521;28;20220;-75
2021/05/03 21:39:09;;;;;;;11.90;5.80;;;13.10;51.80;;;;;;8288645;28;20200;-75
2021/05/03 21:43:09;;;;;;;6.80;6.03;;;13.10;51.70;;;;;;8306734;28;20449;-75
2021/05/03 21:47:10;;;;;;;9.90;6.80;;;13.20;51.60;;;;;;8310963;28;20196;-75
2021/05/03 21:51:11;;;;;;;6.50;5.10;;;13.20;51.50;;;;;;8307334;28;20192;-76
2021/05/03 21:55:23;;;;;;;7.13;5.10;;;13.30;51.00;;;;;;8325897;28;20532;-75
2021/05/03 21:59:24;;;;;;;5.57;5.13;;;13.40;50.70;;;;;;8309838;28;20493;-74
2021/05/03 22:03:26;;;;;;;5.80;5.30;;;13.50;50.60;;;;;;8313187;28;20443;-74
2021/05/03 22:07:32;;;;;;;5.57;5.03;;;13.60;50.50;;;;;;8305374;28;20205;-74
2021/05/03 22:11:37;;;;;;;6.80;6.10;;;13.60;50.40;;;;;;8308441;28;20555;-75
2021/05/03 22:15:40;;;;;;;9.40;4.23;;;13.70;50.00;;;;;;8303281;28;20448;-75
2021/05/03 22:19:56;;;;;;;6.60;4.73;;;13.70;49.70;;;;;;8306089;28;20471;-75
2021/05/03 22:32:26;;;;;;;7.37;5.30;;;13.90;49.20;;;;;;8339910;28;20522;-75
2021/05/03 22:37:18;;;;;;;5.70;4.63;;;13.90;49.00;;;;;;8315123;28;20445;-75
2021/05/03 22:41:26;;;;;;;5.10;3.90;;;14.00;48.80;;;;;;8328551;28;20543;-75
2021/05/03 23:19:02;;;;;;;4.60;3.93;;;14.20;48.50;;;;;;8329246;28;20738;-75
2021/05/03 23:23:03;;;;;;;5.40;4.90;;;14.20;48.40;;;;;;8309139;28;20805;-75